sensor_id;sensor_type;location;lat;lon;timestamp;temperature;humidity
16074;DHT22;8141;52.664;5.074;2023-12-20T00:02:16;19.80;62.40
16074;DHT22;8141;52.664;5.074;2023-12-20T00:04:41;19.80;62.40
16074;DHT22;8141;52.664;5.074;2023-12-20T00:07:07;19.80;62.40
16074;DHT22;8141;52.664;5.074;2023-12-20T00:09:33;19.80;62.40
16074;DHT22;8141;52.664;5.074;2023-12-20T00:11:58;19.80;62.40
16074;DHT22;8141;52.664;5.074;2023-12-20T00:14:24;19.80;62.70
16074;DHT22;8141;52.664;5.074;2023-12-20T00:16:49;19.80;62.60
16074;DHT22;8141;52.664;5.074;2023-12-20T00:19:15;19.80;62.60
16074;DHT22;8141;52.664;5.074;2023-12-20T00:21:41;19.80;62.50
16074;DHT22;8141;52.664;5.074;2023-12-20T00:24:06;19.80;62.40
16074;DHT22;8141;52.664;5.074;2023-12-20T00:26:32;19.80;62.40
16074;DHT22;8141;52.664;5.074;2023-12-20T00:28:58;19.80;62.50
16074;DHT22;8141;52.664;5.074;2023-12-20T00:31:23;19.80;62.50
16074;DHT22;8141;52.664;5.074;2023-12-20T00:33:49;19.80;62.50
16074;DHT22;8141;52.664;5.074;2023-12-20T00:36:15;19.80;62.60
16074;DHT22;8141;52.664;5.074;2023-12-20T00:38:40;19.90;62.70
16074;DHT22;8141;52.664;5.074;2023-12-20T00:41:06;19.80;62.70
16074;DHT22;8141;52.664;5.074;2023-12-20T00:43:31;19.90;62.80
16074;DHT22;8141;52.664;5.074;2023-12-20T00:45:57;19.80;62.90
16074;DHT22;8141;52.664;5.074;2023-12-20T00:48:25;19.80;63.20
16074;DHT22;8141;52.664;5.074;2023-12-20T00:50:52;19.80;63.10
16074;DHT22;8141;52.664;5.074;2023-12-20T00:53:18;19.80;63.00
16074;DHT22;8141;52.664;5.074;2023-12-20T00:55:43;19.90;63.10
16074;DHT22;8141;52.664;5.074;2023-12-20T00:58:10;19.80;63.10
16074;DHT22;8141;52.664;5.074;2023-12-20T01:00:35;19.90;63.10
16074;DHT22;8141;52.664;5.074;2023-12-20T01:03:01;19.90;63.20
16074;DHT22;8141;52.664;5.074;2023-12-20T01:05:27;19.90;63.40
16074;DHT22;8141;52.664;5.074;2023-12-20T01:07:52;19.90;63.40
16074;DHT22;8141;52.664;5.074;2023-12-20T01:10:18;19.80;63.40
16074;DHT22;8141;52.664;5.074;2023-12-20T01:12:44;19.90;63.50
16074;DHT22;8141;52.664;5.074;2023-12-20T01:15:09;19.90;63.40
16074;DHT22;8141;52.664;5.074;2023-12-20T01:17:35;19.80;63.60
16074;DHT22;8141;52.664;5.074;2023-12-20T01:20:01;19.90;63.60
16074;DHT22;8141;52.664;5.074;2023-12-20T01:22:27;19.80;63.70
16074;DHT22;8141;52.664;5.074;2023-12-20T01:24:52;19.90;63.60
16074;DHT22;8141;52.664;5.074;2023-12-20T01:27:18;19.90;63.80
16074;DHT22;8141;52.664;5.074;2023-12-20T01:29:44;19.90;63.60
16074;DHT22;8141;52.664;5.074;2023-12-20T01:32:09;19.80;63.50
16074;DHT22;8141;52.664;5.074;2023-12-20T01:34:35;19.90;63.60
16074;DHT22;8141;52.664;5.074;2023-12-20T01:37:01;19.90;63.60
16074;DHT22;8141;52.664;5.074;2023-12-20T01:39:27;19.90;63.50
16074;DHT22;8141;52.664;5.074;2023-12-20T01:41:53;19.80;63.70
16074;DHT22;8141;52.664;5.074;2023-12-20T01:44:19;19.90;63.80
16074;DHT22;8141;52.664;5.074;2023-12-20T01:46:45;19.90;63.90
16074;DHT22;8141;52.664;5.074;2023-12-20T01:49:11;19.90;64.10
16074;DHT22;8141;52.664;5.074;2023-12-20T01:51:36;19.90;64.10
16074;DHT22;8141;52.664;5.074;2023-12-20T01:54:02;19.90;64.10
16074;DHT22;8141;52.664;5.074;2023-12-20T01:56:28;19.90;64.00
16074;DHT22;8141;52.664;5.074;2023-12-20T01:58:54;19.90;64.10
16074;DHT22;8141;52.664;5.074;2023-12-20T02:01:20;19.90;64.10
16074;DHT22;8141;52.664;5.074;2023-12-20T02:03:45;19.90;64.00
16074;DHT22;8141;52.664;5.074;2023-12-20T02:06:11;19.90;64.00
16074;DHT22;8141;52.664;5.074;2023-12-20T02:08:37;19.90;63.90
16074;DHT22;8141;52.664;5.074;2023-12-20T02:11:03;19.90;64.00
16074;DHT22;8141;52.664;5.074;2023-12-20T02:13:28;19.90;64.00
16074;DHT22;8141;52.664;5.074;2023-12-20T02:15:54;19.90;64.20
16074;DHT22;8141;52.664;5.074;2023-12-20T02:18:20;19.90;64.10
16074;DHT22;8141;52.664;5.074;2023-12-20T02:20:45;19.90;64.10
16074;DHT22;8141;52.664;5.074;2023-12-20T02:23:11;19.90;64.20
16074;DHT22;8141;52.664;5.074;2023-12-20T02:25:37;19.90;64.20
16074;DHT22;8141;52.664;5.074;2023-12-20T02:28:03;19.90;64.00
16074;DHT22;8141;52.664;5.074;2023-12-20T02:30:29;19.90;64.00
16074;DHT22;8141;52.664;5.074;2023-12-20T02:32:54;19.90;63.90
16074;DHT22;8141;52.664;5.074;2023-12-20T02:35:21;19.90;64.10
16074;DHT22;8141;52.664;5.074;2023-12-20T02:37:46;19.90;63.90
16074;DHT22;8141;52.664;5.074;2023-12-20T02:40:12;19.90;63.90
16074;DHT22;8141;52.664;5.074;2023-12-20T02:42:38;19.90;63.90
16074;DHT22;8141;52.664;5.074;2023-12-20T02:45:03;19.90;64.00
16074;DHT22;8141;52.664;5.074;2023-12-20T02:47:29;19.90;63.90
16074;DHT22;8141;52.664;5.074;2023-12-20T02:49:55;19.90;63.70
16074;DHT22;8141;52.664;5.074;2023-12-20T02:52:21;19.90;63.80
16074;DHT22;8141;52.664;5.074;2023-12-20T02:54:48;19.90;63.80
16074;DHT22;8141;52.664;5.074;2023-12-20T02:57:14;19.90;64.10
16074;DHT22;8141;52.664;5.074;2023-12-20T02:59:39;19.90;64.00
16074;DHT22;8141;52.664;5.074;2023-12-20T03:02:05;19.90;64.10
16074;DHT22;8141;52.664;5.074;2023-12-20T03:04:31;19.90;64.10
16074;DHT22;8141;52.664;5.074;2023-12-20T03:06:56;19.90;64.20
16074;DHT22;8141;52.664;5.074;2023-12-20T03:09:22;19.90;64.30
16074;DHT22;8141;52.664;5.074;2023-12-20T03:11:47;19.90;64.30
16074;DHT22;8141;52.664;5.074;2023-12-20T03:14:13;19.90;64.40
16074;DHT22;8141;52.664;5.074;2023-12-20T03:16:38;19.90;64.60
16074;DHT22;8141;52.664;5.074;2023-12-20T03:19:04;19.90;64.40
16074;DHT22;8141;52.664;5.074;2023-12-20T03:21:30;19.90;64.30
16074;DHT22;8141;52.664;5.074;2023-12-20T03:23:55;19.90;64.30
16074;DHT22;8141;52.664;5.074;2023-12-20T03:26:21;19.90;64.40
16074;DHT22;8141;52.664;5.074;2023-12-20T03:28:47;19.90;64.40
16074;DHT22;8141;52.664;5.074;2023-12-20T03:31:14;19.90;64.40
16074;DHT22;8141;52.664;5.074;2023-12-20T03:33:39;19.90;64.40
16074;DHT22;8141;52.664;5.074;2023-12-20T03:36:05;19.90;64.40
16074;DHT22;8141;52.664;5.074;2023-12-20T03:38:31;19.90;64.20
16074;DHT22;8141;52.664;5.074;2023-12-20T03:40:57;19.90;64.20
16074;DHT22;8141;52.664;5.074;2023-12-20T03:43:22;19.90;64.20
16074;DHT22;8141;52.664;5.074;2023-12-20T03:45:48;19.90;64.30
16074;DHT22;8141;52.664;5.074;2023-12-20T03:48:13;19.90;64.40
16074;DHT22;8141;52.664;5.074;2023-12-20T03:50:39;19.90;64.50
16074;DHT22;8141;52.664;5.074;2023-12-20T03:53:05;19.90;64.40
16074;DHT22;8141;52.664;5.074;2023-12-20T03:55:30;19.90;64.40
16074;DHT22;8141;52.664;5.074;2023-12-20T03:57:56;19.90;64.30
16074;DHT22;8141;52.664;5.074;2023-12-20T04:00:21;19.90;65.00
16074;DHT22;8141;52.664;5.074;2023-12-20T04:02:47;19.90;64.50
16074;DHT22;8141;52.664;5.074;2023-12-20T04:05:13;19.90;64.40
16074;DHT22;8141;52.664;5.074;2023-12-20T04:07:38;19.90;64.50
16074;DHT22;8141;52.664;5.074;2023-12-20T04:10:04;19.90;64.40
16074;DHT22;8141;52.664;5.074;2023-12-20T04:12:30;19.90;64.40
16074;DHT22;8141;52.664;5.074;2023-12-20T04:14:56;19.90;64.40
16074;DHT22;8141;52.664;5.074;2023-12-20T04:17:22;19.90;64.30
16074;DHT22;8141;52.664;5.074;2023-12-20T04:19:48;19.90;64.40
16074;DHT22;8141;52.664;5.074;2023-12-20T04:22:14;19.90;64.40
16074;DHT22;8141;52.664;5.074;2023-12-20T04:24:40;19.90;64.50
16074;DHT22;8141;52.664;5.074;2023-12-20T04:27:07;19.90;64.50
16074;DHT22;8141;52.664;5.074;2023-12-20T04:29:33;19.90;64.30
16074;DHT22;8141;52.664;5.074;2023-12-20T04:31:59;19.90;64.40
16074;DHT22;8141;52.664;5.074;2023-12-20T04:34:25;19.90;64.20
16074;DHT22;8141;52.664;5.074;2023-12-20T04:36:51;19.90;64.20
16074;DHT22;8141;52.664;5.074;2023-12-20T04:39:17;19.90;64.40
16074;DHT22;8141;52.664;5.074;2023-12-20T04:41:42;19.90;64.60
16074;DHT22;8141;52.664;5.074;2023-12-20T04:44:08;19.90;64.50
16074;DHT22;8141;52.664;5.074;2023-12-20T04:46:34;19.90;64.60
16074;DHT22;8141;52.664;5.074;2023-12-20T04:48:59;19.90;64.60
16074;DHT22;8141;52.664;5.074;2023-12-20T04:51:25;19.90;64.40
16074;DHT22;8141;52.664;5.074;2023-12-20T04:53:50;19.90;64.40
16074;DHT22;8141;52.664;5.074;2023-12-20T04:56:16;19.90;64.40
16074;DHT22;8141;52.664;5.074;2023-12-20T04:58:42;19.90;65.10
16074;DHT22;8141;52.664;5.074;2023-12-20T05:01:08;19.90;64.50
16074;DHT22;8141;52.664;5.074;2023-12-20T05:03:34;19.90;64.40
16074;DHT22;8141;52.664;5.074;2023-12-20T05:05:59;19.90;64.40
16074;DHT22;8141;52.664;5.074;2023-12-20T05:08:25;19.90;64.30
16074;DHT22;8141;52.664;5.074;2023-12-20T05:10:52;19.90;64.30
16074;DHT22;8141;52.664;5.074;2023-12-20T05:13:19;19.90;64.40
16074;DHT22;8141;52.664;5.074;2023-12-20T05:15:45;19.90;64.30
16074;DHT22;8141;52.664;5.074;2023-12-20T05:18:10;19.90;64.30
16074;DHT22;8141;52.664;5.074;2023-12-20T05:20:36;19.90;64.30
16074;DHT22;8141;52.664;5.074;2023-12-20T05:23:02;19.90;64.30
16074;DHT22;8141;52.664;5.074;2023-12-20T05:25:28;19.90;64.40
16074;DHT22;8141;52.664;5.074;2023-12-20T05:27:53;19.90;64.60
16074;DHT22;8141;52.664;5.074;2023-12-20T05:30:19;19.90;64.50
16074;DHT22;8141;52.664;5.074;2023-12-20T05:32:45;19.90;64.50
16074;DHT22;8141;52.664;5.074;2023-12-20T05:35:10;19.90;65.10
16074;DHT22;8141;52.664;5.074;2023-12-20T05:37:36;19.90;64.60
16074;DHT22;8141;52.664;5.074;2023-12-20T05:40:01;19.90;64.50
16074;DHT22;8141;52.664;5.074;2023-12-20T05:42:27;19.90;65.30
16074;DHT22;8141;52.664;5.074;2023-12-20T05:44:53;19.90;64.60
16074;DHT22;8141;52.664;5.074;2023-12-20T05:47:19;19.90;64.70
16074;DHT22;8141;52.664;5.074;2023-12-20T05:49:44;19.90;64.50
16074;DHT22;8141;52.664;5.074;2023-12-20T05:52:10;19.90;64.60
16074;DHT22;8141;52.664;5.074;2023-12-20T05:54:35;19.90;64.60
16074;DHT22;8141;52.664;5.074;2023-12-20T05:57:01;19.90;64.50
16074;DHT22;8141;52.664;5.074;2023-12-20T05:59:27;19.90;64.70
16074;DHT22;8141;52.664;5.074;2023-12-20T06:01:53;19.90;64.60
16074;DHT22;8141;52.664;5.074;2023-12-20T06:04:19;19.90;64.70
16074;DHT22;8141;52.664;5.074;2023-12-20T06:06:44;19.90;64.50
16074;DHT22;8141;52.664;5.074;2023-12-20T06:09:10;19.90;64.60
16074;DHT22;8141;52.664;5.074;2023-12-20T06:11:36;19.90;64.60
16074;DHT22;8141;52.664;5.074;2023-12-20T06:14:02;19.90;65.30
16074;DHT22;8141;52.664;5.074;2023-12-20T06:16:27;19.90;64.70
16074;DHT22;8141;52.664;5.074;2023-12-20T06:18:53;19.90;64.80
16074;DHT22;8141;52.664;5.074;2023-12-20T06:21:18;19.90;64.80
16074;DHT22;8141;52.664;5.074;2023-12-20T06:23:44;19.90;64.90
16074;DHT22;8141;52.664;5.074;2023-12-20T06:26:09;19.90;65.20
16074;DHT22;8141;52.664;5.074;2023-12-20T06:28:35;19.90;65.40
16074;DHT22;8141;52.664;5.074;2023-12-20T06:31:01;19.90;65.20
16074;DHT22;8141;52.664;5.074;2023-12-20T06:33:26;19.90;65.40
16074;DHT22;8141;52.664;5.074;2023-12-20T06:35:52;19.90;65.30
16074;DHT22;8141;52.664;5.074;2023-12-20T06:38:18;19.90;65.30
16074;DHT22;8141;52.664;5.074;2023-12-20T06:40:44;19.90;65.40
16074;DHT22;8141;52.664;5.074;2023-12-20T06:43:10;19.90;65.20
16074;DHT22;8141;52.664;5.074;2023-12-20T06:45:35;19.90;65.30
16074;DHT22;8141;52.664;5.074;2023-12-20T06:48:01;19.90;65.20
16074;DHT22;8141;52.664;5.074;2023-12-20T06:50:27;19.90;65.30
16074;DHT22;8141;52.664;5.074;2023-12-20T06:52:53;19.90;65.20
16074;DHT22;8141;52.664;5.074;2023-12-20T06:55:18;19.90;65.30
16074;DHT22;8141;52.664;5.074;2023-12-20T06:57:44;19.90;65.30
16074;DHT22;8141;52.664;5.074;2023-12-20T07:00:10;19.90;65.00
16074;DHT22;8141;52.664;5.074;2023-12-20T07:02:36;19.90;65.20
16074;DHT22;8141;52.664;5.074;2023-12-20T07:05:02;19.90;65.10
16074;DHT22;8141;52.664;5.074;2023-12-20T07:07:28;19.90;65.10
16074;DHT22;8141;52.664;5.074;2023-12-20T07:09:53;19.90;65.00
16074;DHT22;8141;52.664;5.074;2023-12-20T07:12:19;19.90;65.00
16074;DHT22;8141;52.664;5.074;2023-12-20T07:14:45;19.90;65.00
16074;DHT22;8141;52.664;5.074;2023-12-20T07:17:11;19.90;64.90
16074;DHT22;8141;52.664;5.074;2023-12-20T07:19:39;19.90;64.90
16074;DHT22;8141;52.664;5.074;2023-12-20T07:22:08;19.90;65.10
16074;DHT22;8141;52.664;5.074;2023-12-20T07:24:33;19.90;65.30
16074;DHT22;8141;52.664;5.074;2023-12-20T07:26:59;19.90;65.30
16074;DHT22;8141;52.664;5.074;2023-12-20T07:29:25;19.90;65.30
16074;DHT22;8141;52.664;5.074;2023-12-20T07:31:52;19.90;65.20
16074;DHT22;8141;52.664;5.074;2023-12-20T07:34:21;19.90;65.10
16074;DHT22;8141;52.664;5.074;2023-12-20T07:36:47;19.90;65.30
16074;DHT22;8141;52.664;5.074;2023-12-20T07:39:13;19.90;65.40
16074;DHT22;8141;52.664;5.074;2023-12-20T07:41:39;19.90;65.30
16074;DHT22;8141;52.664;5.074;2023-12-20T07:44:05;19.90;65.30
16074;DHT22;8141;52.664;5.074;2023-12-20T07:46:32;19.90;65.40
16074;DHT22;8141;52.664;5.074;2023-12-20T07:48:57;19.90;65.30
16074;DHT22;8141;52.664;5.074;2023-12-20T07:51:23;19.90;65.50
16074;DHT22;8141;52.664;5.074;2023-12-20T07:53:48;19.90;65.70
16074;DHT22;8141;52.664;5.074;2023-12-20T07:56:15;19.90;65.80
16074;DHT22;8141;52.664;5.074;2023-12-20T07:58:44;19.90;65.80
16074;DHT22;8141;52.664;5.074;2023-12-20T08:01:11;19.90;65.80
16074;DHT22;8141;52.664;5.074;2023-12-20T08:03:37;19.90;65.70
16074;DHT22;8141;52.664;5.074;2023-12-20T08:06:03;20.00;65.80
16074;DHT22;8141;52.664;5.074;2023-12-20T08:08:29;19.90;65.80
16074;DHT22;8141;52.664;5.074;2023-12-20T08:10:54;20.00;65.80
16074;DHT22;8141;52.664;5.074;2023-12-20T08:13:20;19.90;65.70
16074;DHT22;8141;52.664;5.074;2023-12-20T08:15:50;19.90;66.10
16074;DHT22;8141;52.664;5.074;2023-12-20T08:18:15;19.90;65.90
16074;DHT22;8141;52.664;5.074;2023-12-20T08:20:41;19.90;65.90
16074;DHT22;8141;52.664;5.074;2023-12-20T08:23:07;20.00;66.00
16074;DHT22;8141;52.664;5.074;2023-12-20T08:25:32;19.90;66.00
16074;DHT22;8141;52.664;5.074;2023-12-20T08:27:58;19.90;66.00
16074;DHT22;8141;52.664;5.074;2023-12-20T08:30:23;19.90;65.90
16074;DHT22;8141;52.664;5.074;2023-12-20T08:32:50;19.90;65.80
16074;DHT22;8141;52.664;5.074;2023-12-20T08:35:16;19.90;66.50
16074;DHT22;8141;52.664;5.074;2023-12-20T08:37:42;19.90;63.90
16074;DHT22;8141;52.664;5.074;2023-12-20T08:40:08;19.80;64.10
16074;DHT22;8141;52.664;5.074;2023-12-20T08:42:34;19.80;63.50
16074;DHT22;8141;52.664;5.074;2023-12-20T08:45:00;19.70;62.30
16074;DHT22;8141;52.664;5.074;2023-12-20T08:47:25;19.70;62.60
16074;DHT22;8141;52.664;5.074;2023-12-20T08:49:51;19.70;62.10
16074;DHT22;8141;52.664;5.074;2023-12-20T08:52:24;19.60;61.70
16074;DHT22;8141;52.664;5.074;2023-12-20T08:54:50;19.60;61.70
16074;DHT22;8141;52.664;5.074;2023-12-20T08:57:22;19.50;61.40
16074;DHT22;8141;52.664;5.074;2023-12-20T08:59:49;19.50;60.50
16074;DHT22;8141;52.664;5.074;2023-12-20T09:02:15;19.50;61.50
16074;DHT22;8141;52.664;5.074;2023-12-20T09:04:41;19.40;60.70
16074;DHT22;8141;52.664;5.074;2023-12-20T09:07:12;19.40;60.70
16074;DHT22;8141;52.664;5.074;2023-12-20T09:09:46;19.40;59.80
16074;DHT22;8141;52.664;5.074;2023-12-20T09:12:12;19.40;60.30
16074;DHT22;8141;52.664;5.074;2023-12-20T09:14:37;19.40;60.30
16074;DHT22;8141;52.664;5.074;2023-12-20T09:17:03;19.40;60.70
16074;DHT22;8141;52.664;5.074;2023-12-20T09:19:28;19.30;60.90
16074;DHT22;8141;52.664;5.074;2023-12-20T09:21:55;19.30;61.40
16074;DHT22;8141;52.664;5.074;2023-12-20T09:24:20;19.30;60.30
16074;DHT22;8141;52.664;5.074;2023-12-20T09:26:46;19.30;59.50
16074;DHT22;8141;52.664;5.074;2023-12-20T09:29:11;19.30;59.60
16074;DHT22;8141;52.664;5.074;2023-12-20T09:31:40;19.40;59.90
16074;DHT22;8141;52.664;5.074;2023-12-20T09:34:09;19.30;59.50
16074;DHT22;8141;52.664;5.074;2023-12-20T09:36:34;19.30;59.80
16074;DHT22;8141;52.664;5.074;2023-12-20T09:39:01;19.30;59.50
16074;DHT22;8141;52.664;5.074;2023-12-20T09:41:28;19.30;59.70
16074;DHT22;8141;52.664;5.074;2023-12-20T09:43:56;19.30;59.00
16074;DHT22;8141;52.664;5.074;2023-12-20T09:46:26;19.20;59.40
16074;DHT22;8141;52.664;5.074;2023-12-20T09:48:55;19.30;59.70
16074;DHT22;8141;52.664;5.074;2023-12-20T09:51:20;19.20;59.70
16074;DHT22;8141;52.664;5.074;2023-12-20T09:53:46;19.20;59.60
16074;DHT22;8141;52.664;5.074;2023-12-20T09:56:12;19.20;59.10
16074;DHT22;8141;52.664;5.074;2023-12-20T09:58:38;19.20;59.20
16074;DHT22;8141;52.664;5.074;2023-12-20T10:01:05;19.20;59.00
16074;DHT22;8141;52.664;5.074;2023-12-20T10:03:31;19.20;58.70
16074;DHT22;8141;52.664;5.074;2023-12-20T10:05:56;19.20;59.40
16074;DHT22;8141;52.664;5.074;2023-12-20T10:08:23;19.20;59.50
16074;DHT22;8141;52.664;5.074;2023-12-20T10:10:49;19.20;59.40
16074;DHT22;8141;52.664;5.074;2023-12-20T10:13:15;19.20;58.90
16074;DHT22;8141;52.664;5.074;2023-12-20T10:15:41;19.20;59.10
16074;DHT22;8141;52.664;5.074;2023-12-20T10:18:07;19.20;58.40
16074;DHT22;8141;52.664;5.074;2023-12-20T10:20:32;19.20;58.90
16074;DHT22;8141;52.664;5.074;2023-12-20T10:22:59;19.20;59.20
16074;DHT22;8141;52.664;5.074;2023-12-20T10:25:25;19.10;59.10
16074;DHT22;8141;52.664;5.074;2023-12-20T10:28:08;19.10;59.50
16074;DHT22;8141;52.664;5.074;2023-12-20T10:30:34;19.20;59.10
16074;DHT22;8141;52.664;5.074;2023-12-20T10:33:01;19.20;58.10
16074;DHT22;8141;52.664;5.074;2023-12-20T10:35:26;19.10;58.60
16074;DHT22;8141;52.664;5.074;2023-12-20T10:37:54;19.10;58.90
16074;DHT22;8141;52.664;5.074;2023-12-20T10:40:21;19.00;57.40
16074;DHT22;8141;52.664;5.074;2023-12-20T10:42:47;19.10;60.10
16074;DHT22;8141;52.664;5.074;2023-12-20T10:45:13;19.10;59.40
16074;DHT22;8141;52.664;5.074;2023-12-20T10:47:40;19.20;58.60
16074;DHT22;8141;52.664;5.074;2023-12-20T10:50:07;19.20;58.90
16074;DHT22;8141;52.664;5.074;2023-12-20T10:52:34;19.10;58.90
16074;DHT22;8141;52.664;5.074;2023-12-20T10:54:59;19.20;58.80
16074;DHT22;8141;52.664;5.074;2023-12-20T10:57:25;19.10;59.10
16074;DHT22;8141;52.664;5.074;2023-12-20T10:59:53;19.10;58.50
16074;DHT22;8141;52.664;5.074;2023-12-20T11:02:19;19.00;58.80
16074;DHT22;8141;52.664;5.074;2023-12-20T11:07:58;19.10;59.00
16074;DHT22;8141;52.664;5.074;2023-12-20T11:10:30;19.20;62.10
16074;DHT22;8141;52.664;5.074;2023-12-20T11:15:25;19.30;63.60
16074;DHT22;8141;52.664;5.074;2023-12-20T11:17:56;19.30;63.80
16074;DHT22;8141;52.664;5.074;2023-12-20T11:20:24;19.30;62.80
16074;DHT22;8141;52.664;5.074;2023-12-20T11:23:00;19.30;62.70
16074;DHT22;8141;52.664;5.074;2023-12-20T11:25:26;19.30;61.40
16074;DHT22;8141;52.664;5.074;2023-12-20T11:28:08;19.30;60.90
16074;DHT22;8141;52.664;5.074;2023-12-20T11:30:42;19.30;61.20
16074;DHT22;8141;52.664;5.074;2023-12-20T11:33:08;19.20;59.80
16074;DHT22;8141;52.664;5.074;2023-12-20T11:35:34;19.20;60.60
16074;DHT22;8141;52.664;5.074;2023-12-20T11:38:02;19.20;60.30
16074;DHT22;8141;52.664;5.074;2023-12-20T11:40:27;19.20;60.40
16074;DHT22;8141;52.664;5.074;2023-12-20T11:42:53;19.20;59.60
16074;DHT22;8141;52.664;5.074;2023-12-20T11:45:20;19.20;59.90
16074;DHT22;8141;52.664;5.074;2023-12-20T11:47:47;19.10;59.80
16074;DHT22;8141;52.664;5.074;2023-12-20T11:50:15;19.10;59.40
16074;DHT22;8141;52.664;5.074;2023-12-20T11:52:44;19.10;59.10
16074;DHT22;8141;52.664;5.074;2023-12-20T11:55:09;19.10;59.60
16074;DHT22;8141;52.664;5.074;2023-12-20T11:57:35;19.10;59.10
16074;DHT22;8141;52.664;5.074;2023-12-20T12:00:01;19.10;58.80
16074;DHT22;8141;52.664;5.074;2023-12-20T12:02:28;19.00;58.80
16074;DHT22;8141;52.664;5.074;2023-12-20T12:04:53;19.00;58.80
16074;DHT22;8141;52.664;5.074;2023-12-20T12:07:20;19.00;59.20
16074;DHT22;8141;52.664;5.074;2023-12-20T12:09:45;19.00;59.30
16074;DHT22;8141;52.664;5.074;2023-12-20T12:12:12;19.00;58.90
16074;DHT22;8141;52.664;5.074;2023-12-20T12:14:38;19.00;58.70
16074;DHT22;8141;52.664;5.074;2023-12-20T12:17:12;19.00;59.00
16074;DHT22;8141;52.664;5.074;2023-12-20T12:19:39;19.00;58.90
16074;DHT22;8141;52.664;5.074;2023-12-20T12:22:08;19.00;58.40
16074;DHT22;8141;52.664;5.074;2023-12-20T12:24:44;19.00;58.70
16074;DHT22;8141;52.664;5.074;2023-12-20T12:27:11;18.90;57.70
16074;DHT22;8141;52.664;5.074;2023-12-20T12:29:37;18.90;58.80
16074;DHT22;8141;52.664;5.074;2023-12-20T12:32:04;18.90;59.00
16074;DHT22;8141;52.664;5.074;2023-12-20T12:34:34;18.90;58.70
16074;DHT22;8141;52.664;5.074;2023-12-20T12:37:00;18.90;57.70
16074;DHT22;8141;52.664;5.074;2023-12-20T12:39:26;18.90;58.30
16074;DHT22;8141;52.664;5.074;2023-12-20T12:41:51;18.90;59.10
16074;DHT22;8141;52.664;5.074;2023-12-20T12:44:17;18.90;58.40
16074;DHT22;8141;52.664;5.074;2023-12-20T12:46:44;18.90;59.00
16074;DHT22;8141;52.664;5.074;2023-12-20T12:49:10;18.90;58.80
16074;DHT22;8141;52.664;5.074;2023-12-20T12:51:36;18.90;58.90
16074;DHT22;8141;52.664;5.074;2023-12-20T12:54:01;18.90;58.70
16074;DHT22;8141;52.664;5.074;2023-12-20T12:56:27;18.90;58.60
16074;DHT22;8141;52.664;5.074;2023-12-20T12:58:53;18.90;59.50
16074;DHT22;8141;52.664;5.074;2023-12-20T13:01:18;18.90;58.90
16074;DHT22;8141;52.664;5.074;2023-12-20T13:03:44;18.90;58.90
16074;DHT22;8141;52.664;5.074;2023-12-20T13:06:10;18.90;58.80
16074;DHT22;8141;52.664;5.074;2023-12-20T13:08:35;18.90;58.20
16074;DHT22;8141;52.664;5.074;2023-12-20T13:11:01;18.90;58.60
16074;DHT22;8141;52.664;5.074;2023-12-20T13:13:29;18.80;58.60
16074;DHT22;8141;52.664;5.074;2023-12-20T13:15:56;18.90;58.70
16074;DHT22;8141;52.664;5.074;2023-12-20T13:18:24;18.80;58.60
16074;DHT22;8141;52.664;5.074;2023-12-20T13:20:50;18.80;58.40
16074;DHT22;8141;52.664;5.074;2023-12-20T13:23:16;18.80;58.20
16074;DHT22;8141;52.664;5.074;2023-12-20T13:25:43;18.80;58.50
16074;DHT22;8141;52.664;5.074;2023-12-20T13:28:10;18.80;58.40
16074;DHT22;8141;52.664;5.074;2023-12-20T13:30:36;18.90;58.50
16074;DHT22;8141;52.664;5.074;2023-12-20T13:33:02;18.80;58.20
16074;DHT22;8141;52.664;5.074;2023-12-20T13:35:28;18.80;57.70
16074;DHT22;8141;52.664;5.074;2023-12-20T13:37:53;18.70;58.40
16074;DHT22;8141;52.664;5.074;2023-12-20T13:40:19;18.80;58.40
16074;DHT22;8141;52.664;5.074;2023-12-20T13:42:44;18.70;58.20
16074;DHT22;8141;52.664;5.074;2023-12-20T13:45:10;18.80;58.70
16074;DHT22;8141;52.664;5.074;2023-12-20T13:47:36;18.70;58.10
16074;DHT22;8141;52.664;5.074;2023-12-20T13:50:02;18.70;58.20
16074;DHT22;8141;52.664;5.074;2023-12-20T13:52:29;18.70;58.20
16074;DHT22;8141;52.664;5.074;2023-12-20T13:54:55;18.70;58.20
16074;DHT22;8141;52.664;5.074;2023-12-20T13:57:20;18.70;58.70
16074;DHT22;8141;52.664;5.074;2023-12-20T13:59:46;18.70;58.40
16074;DHT22;8141;52.664;5.074;2023-12-20T14:02:11;18.70;58.10
16074;DHT22;8141;52.664;5.074;2023-12-20T14:04:37;18.70;57.80
16074;DHT22;8141;52.664;5.074;2023-12-20T14:07:04;18.70;57.90
16074;DHT22;8141;52.664;5.074;2023-12-20T14:09:30;18.60;58.30
16074;DHT22;8141;52.664;5.074;2023-12-20T14:11:56;18.70;58.60
16074;DHT22;8141;52.664;5.074;2023-12-20T14:14:21;18.60;58.20
16074;DHT22;8141;52.664;5.074;2023-12-20T14:16:47;18.70;58.50
16074;DHT22;8141;52.664;5.074;2023-12-20T14:19:13;18.70;57.90
16074;DHT22;8141;52.664;5.074;2023-12-20T14:21:38;18.70;58.50
16074;DHT22;8141;52.664;5.074;2023-12-20T14:24:04;18.70;58.50
16074;DHT22;8141;52.664;5.074;2023-12-20T14:26:30;18.70;58.60
16074;DHT22;8141;52.664;5.074;2023-12-20T14:28:57;18.70;58.70
16074;DHT22;8141;52.664;5.074;2023-12-20T14:31:22;18.70;58.20
16074;DHT22;8141;52.664;5.074;2023-12-20T14:33:49;18.70;58.80
16074;DHT22;8141;52.664;5.074;2023-12-20T14:36:16;18.70;58.90
16074;DHT22;8141;52.664;5.074;2023-12-20T14:38:43;18.70;58.80
16074;DHT22;8141;52.664;5.074;2023-12-20T14:41:09;18.70;58.40
16074;DHT22;8141;52.664;5.074;2023-12-20T14:43:34;18.60;58.50
16074;DHT22;8141;52.664;5.074;2023-12-20T14:46:00;18.70;59.00
16074;DHT22;8141;52.664;5.074;2023-12-20T14:48:26;18.60;58.40
16074;DHT22;8141;52.664;5.074;2023-12-20T14:50:53;18.60;58.90
16074;DHT22;8141;52.664;5.074;2023-12-20T14:53:19;18.70;59.00
16074;DHT22;8141;52.664;5.074;2023-12-20T14:55:45;18.60;58.70
16074;DHT22;8141;52.664;5.074;2023-12-20T14:58:11;18.60;58.90
16074;DHT22;8141;52.664;5.074;2023-12-20T15:00:37;18.60;58.40
16074;DHT22;8141;52.664;5.074;2023-12-20T15:03:03;18.60;59.00
16074;DHT22;8141;52.664;5.074;2023-12-20T15:05:30;18.60;59.10
16074;DHT22;8141;52.664;5.074;2023-12-20T15:07:56;18.60;58.80
16074;DHT22;8141;52.664;5.074;2023-12-20T15:10:22;18.60;59.10
16074;DHT22;8141;52.664;5.074;2023-12-20T15:12:47;18.60;58.90
16074;DHT22;8141;52.664;5.074;2023-12-20T15:15:13;18.50;58.90
16074;DHT22;8141;52.664;5.074;2023-12-20T15:17:39;18.60;59.10
16074;DHT22;8141;52.664;5.074;2023-12-20T15:20:05;18.60;58.90
16074;DHT22;8141;52.664;5.074;2023-12-20T15:22:31;18.50;58.80
16074;DHT22;8141;52.664;5.074;2023-12-20T15:24:59;18.50;58.70
16074;DHT22;8141;52.664;5.074;2023-12-20T15:27:26;18.50;59.20
16074;DHT22;8141;52.664;5.074;2023-12-20T15:29:52;18.50;59.10
16074;DHT22;8141;52.664;5.074;2023-12-20T15:32:17;18.40;59.00
16074;DHT22;8141;52.664;5.074;2023-12-20T15:34:46;18.40;59.00
16074;DHT22;8141;52.664;5.074;2023-12-20T15:37:12;18.40;59.40
16074;DHT22;8141;52.664;5.074;2023-12-20T15:39:37;18.40;59.40
16074;DHT22;8141;52.664;5.074;2023-12-20T15:42:03;18.40;59.20
16074;DHT22;8141;52.664;5.074;2023-12-20T15:44:29;18.40;59.60